createdAt,value
2018-05-07T00:02:25.424Z,2.00
2018-05-07T00:04:52.934Z,2.10
2018-05-07T00:07:20.455Z,2.00
2018-05-07T00:09:47.975Z,2.23
2018-05-07T00:12:16.267Z,2.20
2018-05-07T00:14:43.787Z,2.50
2018-05-07T00:17:11.282Z,2.63
2018-05-07T00:19:38.799Z,3.03
2018-05-07T00:22:06.294Z,2.10
2018-05-07T00:24:33.828Z,2.10
2018-05-07T00:27:01.339Z,2.40
2018-05-07T00:29:28.919Z,2.00
2018-05-07T00:31:56.461Z,2.73
2018-05-07T00:34:23.991Z,1.90
2018-05-07T00:36:51.524Z,1.93
2018-05-07T00:39:19.016Z,2.23
2018-05-07T00:41:46.607Z,2.10
2018-05-07T00:44:14.195Z,2.43
2018-05-07T00:46:41.784Z,2.67
2018-05-07T00:49:10.092Z,2.60
2018-05-07T00:51:37.674Z,2.10
2018-05-07T00:54:05.210Z,2.90
2018-05-07T00:56:32.798Z,2.17
2018-05-07T00:59:00.343Z,2.20
2018-05-07T01:01:27.838Z,2.33
2018-05-07T01:03:55.377Z,2.60
2018-05-07T01:06:22.879Z,2.50
2018-05-07T01:08:50.380Z,2.40
2018-05-07T01:11:17.905Z,2.20
2018-05-07T01:13:46.173Z,2.57
2018-05-07T01:16:13.695Z,2.07
2018-05-07T01:18:41.200Z,2.13
2018-05-07T01:21:09.488Z,2.20
2018-05-07T01:23:37.761Z,2.60
2018-05-07T01:26:06.027Z,1.73
2018-05-07T01:28:34.312Z,2.40
2018-05-07T01:31:02.571Z,1.90
2018-05-07T01:33:30.088Z,2.37
2018-05-07T01:35:58.341Z,2.40
2018-05-07T01:38:25.855Z,2.20
2018-05-07T01:40:53.357Z,2.53
2018-05-07T01:43:20.877Z,2.27
2018-05-07T01:45:48.367Z,2.43
2018-05-07T01:48:16.633Z,2.43
2018-05-07T01:50:44.909Z,2.40
2018-05-07T01:53:12.410Z,2.40
2018-05-07T01:55:39.926Z,2.10
2018-05-07T01:58:07.428Z,2.33
2018-05-07T02:00:34.963Z,2.23
2018-05-07T02:03:03.217Z,2.23
2018-05-07T02:05:30.735Z,2.77
2018-05-07T02:07:58.217Z,2.40
2018-05-07T02:10:25.739Z,2.10
2018-05-07T02:12:53.239Z,2.33
2018-05-07T02:15:20.743Z,2.20
2018-05-07T02:17:48.274Z,3.30
2018-05-07T02:20:15.770Z,2.70
2018-05-07T02:22:43.290Z,2.20
2018-05-07T02:25:10.783Z,2.37
2018-05-07T02:27:38.306Z,2.23
2018-05-07T02:30:05.809Z,2.50
2018-05-07T02:32:33.326Z,2.47
2018-05-07T02:35:00.819Z,2.00
2018-05-07T02:37:28.310Z,2.37
2018-05-07T02:39:55.821Z,3.10
2018-05-07T02:42:24.083Z,2.50
2018-05-07T02:44:51.637Z,2.80
2018-05-07T02:47:19.123Z,2.40
2018-05-07T02:49:46.663Z,2.87
2018-05-07T02:52:14.158Z,2.73
2018-05-07T02:54:41.720Z,2.33
2018-05-07T02:57:09.330Z,2.67
2018-05-07T02:59:36.821Z,2.67
2018-05-07T03:02:05.102Z,2.70
2018-05-07T03:04:32.615Z,2.50
2018-05-07T03:07:00.133Z,2.23
2018-05-07T03:09:27.633Z,2.80
2018-05-07T03:11:55.154Z,2.53
2018-05-07T03:14:22.655Z,2.50
2018-05-07T03:16:50.183Z,2.67
2018-05-07T03:19:17.683Z,2.70
2018-05-07T03:21:45.173Z,2.57
2018-05-07T03:24:13.458Z,2.60
2018-05-07T03:26:40.955Z,2.70
2018-05-07T03:29:08.461Z,2.63
2018-05-07T03:31:36.732Z,3.40
2018-05-07T03:34:04.245Z,2.63
2018-05-07T03:36:31.954Z,2.30
2018-05-07T03:38:59.462Z,2.30
2018-05-07T03:41:26.945Z,2.50
2018-05-07T03:43:54.434Z,2.67
2018-05-07T03:46:21.947Z,2.83
2018-05-07T03:48:49.451Z,3.30
2018-05-07T03:51:17.738Z,2.73
2018-05-07T03:53:45.991Z,2.20
2018-05-07T03:56:13.499Z,2.70
2018-05-07T03:58:40.995Z,2.23
2018-05-07T04:01:08.530Z,2.40
2018-05-07T04:03:36.790Z,2.70
2018-05-07T04:06:04.294Z,2.10
2018-05-07T04:08:31.802Z,2.63
2018-05-07T04:10:59.296Z,2.80
2018-05-07T04:13:26.811Z,2.70
2018-05-07T04:15:55.067Z,2.30
2018-05-07T04:18:34.458Z,2.63
2018-05-07T04:21:15.637Z,2.37
2018-05-07T04:23:55.042Z,2.90
2018-05-07T04:26:23.301Z,2.60
2018-05-07T04:28:50.812Z,2.63
2018-05-07T04:31:19.195Z,4.93
2018-05-07T04:33:46.720Z,4.33
2018-05-07T04:36:14.978Z,3.20
2018-05-07T04:38:42.501Z,2.60
2018-05-07T04:41:09.993Z,3.00
2018-05-07T04:43:37.481Z,2.70
2018-05-07T04:46:05.757Z,2.80
2018-05-07T04:48:33.262Z,2.67
2018-05-07T04:51:00.774Z,3.40
2018-05-07T04:53:29.960Z,3.47
2018-05-07T04:55:57.435Z,3.10
2018-05-07T04:58:25.693Z,2.93
2018-05-07T05:00:53.198Z,2.60
2018-05-07T05:03:20.686Z,2.80
2018-05-07T05:05:48.195Z,3.17
2018-05-07T05:08:15.705Z,3.10
2018-05-07T05:10:43.230Z,3.20
2018-05-07T05:13:10.746Z,2.90
2018-05-07T05:15:38.465Z,3.20
2018-05-07T05:18:05.983Z,3.30
2018-05-07T05:20:34.250Z,3.00
2018-05-07T05:23:01.770Z,2.77
2018-05-07T05:25:29.259Z,3.87
2018-05-07T05:27:56.771Z,3.17
2018-05-07T05:30:24.484Z,4.10
2018-05-07T05:32:51.966Z,3.40
2018-05-07T05:35:20.233Z,3.10
2018-05-07T05:37:48.512Z,3.63
2018-05-07T05:40:16.817Z,3.60
2018-05-07T05:42:44.305Z,3.50
2018-05-07T05:45:11.844Z,3.43
2018-05-07T05:47:39.334Z,3.20
2018-05-07T05:50:06.896Z,3.60
2018-05-07T05:52:34.386Z,3.63
2018-05-07T05:55:02.645Z,3.20
2018-05-07T05:57:30.186Z,3.17
2018-05-07T05:59:57.674Z,2.97
2018-05-07T06:02:25.193Z,3.33
2018-05-07T06:04:52.673Z,3.67
2018-05-07T06:07:20.173Z,3.67
2018-05-07T06:09:48.462Z,3.80
2018-05-07T06:12:15.981Z,3.80
2018-05-07T06:14:43.661Z,3.50
2018-05-07T06:17:11.002Z,3.63
2018-05-07T06:19:38.510Z,3.30
2018-05-07T06:22:05.998Z,3.30
2018-05-07T06:24:33.552Z,3.63
2018-05-07T06:27:01.059Z,3.10
2018-05-07T06:29:29.318Z,3.27
2018-05-07T06:31:56.900Z,4.13
2018-05-07T06:34:25.465Z,3.10
2018-05-07T06:36:53.053Z,3.20
2018-05-07T06:39:20.559Z,3.03
2018-05-07T06:41:48.066Z,3.40
2018-05-07T06:44:16.383Z,3.33
2018-05-07T06:46:43.892Z,3.67
2018-05-07T06:49:12.186Z,3.40
2018-05-07T06:51:39.802Z,3.50
2018-05-07T06:54:07.335Z,3.33
2018-05-07T06:56:34.843Z,3.70
2018-05-07T06:59:02.419Z,3.37
2018-05-07T07:01:30.673Z,3.80
2018-05-07T07:03:58.167Z,3.50
2018-05-07T07:06:25.682Z,3.50
2018-05-07T07:08:53.451Z,3.50
2018-05-07T07:11:20.949Z,3.83
2018-05-07T07:13:49.214Z,3.63
2018-05-07T07:16:17.492Z,3.53
2018-05-07T07:18:45.745Z,3.30
2018-05-07T07:21:13.258Z,3.33
2018-05-07T07:23:40.750Z,2.90
2018-05-07T07:26:08.251Z,3.57
2018-05-07T07:28:36.531Z,3.30
2018-05-07T07:31:04.789Z,3.17
2018-05-07T07:33:32.321Z,3.10
2018-05-07T07:35:59.834Z,3.30
2018-05-07T07:38:27.346Z,3.00
2018-05-07T07:40:54.848Z,4.03
2018-05-07T07:43:23.125Z,3.03
2018-05-07T07:45:51.379Z,3.63
2018-05-07T07:48:18.887Z,3.37
2018-05-07T07:50:46.406Z,3.70
2018-05-07T07:53:14.668Z,3.10
2018-05-07T07:55:42.243Z,2.87
2018-05-07T07:58:09.738Z,3.07
2018-05-07T08:00:37.260Z,3.37
2018-05-07T08:03:04.759Z,3.00
2018-05-07T08:05:32.298Z,3.17
2018-05-07T08:08:00.570Z,3.50
2018-05-07T08:10:28.831Z,3.37
2018-05-07T08:12:57.139Z,2.93
2018-05-07T08:15:24.632Z,3.00
2018-05-07T08:17:52.160Z,3.60
2018-05-07T08:20:19.670Z,3.10
2018-05-07T08:22:47.182Z,3.20
2018-05-07T08:25:14.676Z,3.03
2018-05-07T08:27:42.186Z,3.40
2018-05-07T08:30:10.457Z,3.40
2018-05-07T08:32:38.732Z,3.00
2018-05-07T08:35:06.247Z,2.70
2018-05-07T08:37:33.741Z,2.90
2018-05-07T08:40:01.276Z,3.40
2018-05-07T08:42:28.765Z,2.97
2018-05-07T08:44:57.061Z,2.80
2018-05-07T08:47:24.565Z,2.83
2018-05-07T08:49:52.083Z,2.67
2018-05-07T08:52:19.609Z,3.17
2018-05-07T08:54:47.138Z,3.10
2018-05-07T08:57:14.646Z,3.63
2018-05-07T08:59:42.924Z,3.10
2018-05-07T09:02:10.512Z,3.90
2018-05-07T09:04:38.982Z,3.80
2018-05-07T09:07:07.261Z,3.50
2018-05-07T09:09:34.775Z,3.07
2018-05-07T09:12:02.296Z,2.97
2018-05-07T09:14:29.790Z,2.93
2018-05-07T09:16:57.290Z,3.03
2018-05-07T09:19:25.584Z,3.90
2018-05-07T09:21:53.069Z,2.93
2018-05-07T09:24:20.588Z,4.07
2018-05-07T09:26:48.846Z,2.83
2018-05-07T09:29:16.366Z,3.40
2018-05-07T09:31:43.863Z,3.40
2018-05-07T09:34:11.367Z,3.00
2018-05-07T09:36:38.914Z,3.07
2018-05-07T09:39:07.347Z,4.20
2018-05-07T09:41:34.911Z,3.40
2018-05-07T09:44:02.430Z,3.63
2018-05-07T09:46:29.937Z,4.13
2018-05-07T09:48:58.059Z,3.33
2018-05-07T09:51:26.297Z,4.00
2018-05-07T09:53:53.787Z,3.57
2018-05-07T09:56:21.301Z,3.00
2018-05-07T09:58:57.559Z,3.60
2018-05-07T10:01:25.048Z,3.53
2018-05-07T10:03:53.319Z,3.00
2018-05-07T10:06:21.794Z,3.47
2018-05-07T10:08:50.081Z,3.20
2018-05-07T10:11:18.345Z,3.50
2018-05-07T10:13:45.861Z,3.53
2018-05-07T10:16:13.372Z,3.27
2018-05-07T10:18:41.652Z,3.23
2018-05-07T10:21:09.179Z,3.17
2018-05-07T10:23:36.733Z,3.00
2018-05-07T10:26:04.246Z,2.83
2018-05-07T10:28:31.726Z,2.93
2018-05-07T10:30:59.246Z,2.80
2018-05-07T10:33:27.530Z,2.90
2018-05-07T10:35:55.810Z,3.30
2018-05-07T10:38:24.087Z,3.30
2018-05-07T10:40:51.590Z,3.60
2018-05-07T10:43:19.097Z,3.17
2018-05-07T10:45:46.610Z,3.30
2018-05-07T10:48:14.117Z,3.00
2018-05-07T10:50:42.391Z,3.07
2018-05-07T10:53:09.927Z,3.00
2018-05-07T10:55:37.421Z,3.33
2018-05-07T10:58:05.684Z,3.07
2018-05-07T11:00:33.202Z,2.60
2018-05-07T11:03:00.695Z,2.83
2018-05-07T11:05:28.273Z,3.00
2018-05-07T11:07:55.782Z,2.40
2018-05-07T11:10:23.290Z,3.00
2018-05-07T11:12:50.814Z,2.97
2018-05-07T11:15:18.321Z,2.53
2018-05-07T11:17:46.577Z,2.80
2018-05-07T11:20:14.074Z,3.00
2018-05-07T11:22:41.590Z,3.17
2018-05-07T11:25:09.083Z,3.20
2018-05-07T11:27:37.350Z,3.00
2018-05-07T11:30:05.603Z,3.20
2018-05-07T11:32:33.113Z,2.50
2018-05-07T11:35:00.626Z,3.30
2018-05-07T11:37:28.147Z,2.60
2018-05-07T11:39:55.641Z,2.83
2018-05-07T11:42:23.921Z,2.70
2018-05-07T11:44:51.456Z,2.90
2018-05-07T11:47:19.026Z,3.23
2018-05-07T11:49:46.506Z,3.00
2018-05-07T11:52:14.000Z,3.00
2018-05-07T11:54:41.517Z,3.70
2018-05-07T11:57:09.013Z,2.80
2018-05-07T11:59:36.534Z,3.20
2018-05-07T12:02:04.023Z,2.40
2018-05-07T12:04:32.278Z,2.60
2018-05-07T12:06:59.790Z,2.90
2018-05-07T12:09:27.291Z,3.00
2018-05-07T12:11:54.814Z,3.07
2018-05-07T12:14:22.310Z,2.63
2018-05-07T12:16:50.039Z,2.30
2018-05-07T12:19:17.540Z,2.77
2018-05-07T12:21:45.082Z,3.00
2018-05-07T12:24:12.592Z,2.80
2018-05-07T12:26:40.091Z,2.77
2018-05-07T12:29:07.602Z,2.97
2018-05-07T12:31:35.191Z,2.40
2018-05-07T12:34:02.633Z,2.83
2018-05-07T12:36:30.123Z,2.37
2018-05-07T12:38:57.662Z,2.63
2018-05-07T12:41:25.162Z,2.80
2018-05-07T12:43:52.674Z,2.20
2018-05-07T12:46:20.169Z,2.37
2018-05-07T12:48:47.670Z,2.83
2018-05-07T12:51:15.948Z,2.27
2018-05-07T12:53:44.220Z,2.10
2018-05-07T12:56:12.512Z,2.20
2018-05-07T12:58:40.029Z,2.07
2018-05-07T13:01:07.543Z,2.23
2018-05-07T13:03:35.035Z,2.43
2018-05-07T13:06:02.564Z,2.70
2018-05-07T13:08:30.062Z,1.90
2018-05-07T13:10:57.585Z,2.33
2018-05-07T13:13:25.077Z,2.40
2018-05-07T13:15:52.574Z,2.20
2018-05-07T13:18:20.882Z,2.20
2018-05-07T13:20:48.378Z,2.53
2018-05-07T13:23:15.916Z,2.10
2018-05-07T13:25:43.432Z,2.60
2018-05-07T13:28:11.712Z,2.57
2018-05-07T13:30:39.971Z,2.53
2018-05-07T13:33:07.517Z,2.20
2018-05-07T13:35:35.030Z,2.80
2018-05-07T13:38:02.536Z,2.30
2018-05-07T13:40:30.062Z,2.30
2018-05-07T13:42:57.554Z,2.53
2018-05-07T13:45:25.074Z,2.70
2018-05-07T13:47:52.579Z,2.40
2018-05-07T13:50:20.320Z,2.73
2018-05-07T13:52:47.806Z,2.50
2018-05-07T13:55:15.315Z,2.57
2018-05-07T13:57:42.843Z,2.00
2018-05-07T14:00:11.131Z,2.30
2018-05-07T14:02:39.384Z,2.47
2018-05-07T14:05:06.890Z,2.40
2018-05-07T14:07:34.419Z,2.00
2018-05-07T14:10:02.682Z,2.50
2018-05-07T14:12:30.195Z,2.30
2018-05-07T14:14:57.683Z,2.20
2018-05-07T14:17:25.198Z,2.40
2018-05-07T14:19:52.702Z,3.07
2018-05-07T14:22:20.211Z,2.83
2018-05-07T14:24:47.709Z,3.50
2018-05-07T14:27:15.215Z,3.80
2018-05-07T14:29:43.496Z,2.50
2018-05-07T14:32:11.758Z,3.20
2018-05-07T14:34:40.064Z,2.57
2018-05-07T14:37:07.560Z,2.90
2018-05-07T14:39:35.098Z,3.70
2018-05-07T14:42:02.604Z,2.53
2018-05-07T14:44:30.144Z,2.60
2018-05-07T14:46:57.637Z,2.50
2018-05-07T14:49:25.898Z,2.73
2018-05-07T14:51:53.419Z,2.60
2018-05-07T14:54:20.934Z,2.43
2018-05-07T14:56:49.239Z,2.60
2018-05-07T14:59:16.763Z,2.70
2018-05-07T15:01:45.431Z,2.23
2018-05-07T15:04:12.931Z,2.80
2018-05-07T15:06:40.467Z,2.40
2018-05-07T15:09:08.771Z,3.07
2018-05-07T15:11:36.290Z,3.07
2018-05-07T15:14:15.612Z,2.03
2018-05-07T15:16:43.110Z,2.57
2018-05-07T15:19:11.398Z,2.50
2018-05-07T15:21:38.912Z,2.63
2018-05-07T15:24:06.426Z,2.60
2018-05-07T15:26:33.932Z,2.23
2018-05-07T15:29:11.352Z,2.93
2018-05-07T15:31:38.781Z,2.40
2018-05-07T15:34:06.291Z,2.50
2018-05-07T15:36:33.826Z,2.47
2018-05-07T15:39:02.157Z,2.40
2018-05-07T15:41:29.664Z,2.43
2018-05-07T15:43:57.231Z,2.80
2018-05-07T15:46:24.693Z,2.60
2018-05-07T15:48:52.992Z,2.47
2018-05-07T15:51:20.531Z,2.60
2018-05-07T15:53:49.040Z,2.67
2018-05-07T15:56:16.544Z,2.57
2018-05-07T15:58:44.083Z,2.70
2018-05-07T16:01:11.596Z,2.77
2018-05-07T16:03:39.883Z,2.70
2018-05-07T16:06:07.396Z,3.20
2018-05-07T16:08:34.931Z,2.90
2018-05-07T16:11:02.449Z,2.47
2018-05-07T16:13:29.979Z,2.50
2018-05-07T16:15:57.529Z,3.00
2018-05-07T16:18:25.020Z,3.10
2018-05-07T16:20:52.621Z,2.70
2018-05-07T16:23:20.331Z,2.87
2018-05-07T16:25:47.599Z,3.03
2018-05-07T16:28:15.134Z,3.30
2018-05-07T16:30:42.617Z,2.70
2018-05-07T16:33:10.911Z,2.80
2018-05-07T16:35:38.647Z,2.80
2018-05-07T16:38:06.086Z,2.70
2018-05-07T16:40:33.603Z,2.80
2018-05-07T16:43:01.114Z,2.37
2018-05-07T16:45:28.695Z,2.77
2018-05-07T16:47:56.214Z,2.73
2018-05-07T16:50:23.737Z,2.37
2018-05-07T16:52:51.259Z,2.70
2018-05-07T16:55:18.783Z,2.47
2018-05-07T16:57:46.293Z,3.20
2018-05-07T17:00:13.826Z,3.10
2018-05-07T17:02:41.319Z,3.33
2018-05-07T17:05:12.447Z,2.97
2018-05-07T17:07:39.947Z,2.60
2018-05-07T17:10:08.235Z,3.23
2018-05-07T17:12:35.958Z,3.17
2018-05-07T17:15:03.477Z,2.87
2018-05-07T17:17:31.006Z,2.73
2018-05-07T17:19:58.523Z,2.87
2018-05-07T17:22:26.048Z,2.70
2018-05-07T17:24:53.541Z,3.03
2018-05-07T17:27:21.076Z,2.80
2018-05-07T17:29:48.588Z,2.97
2018-05-07T17:32:16.859Z,3.43
2018-05-07T17:34:45.157Z,3.53
2018-05-07T17:37:12.673Z,3.43
2018-05-07T17:39:40.200Z,3.07
2018-05-07T17:42:07.716Z,3.17
2018-05-07T17:44:47.866Z,3.40
2018-05-07T17:47:27.220Z,2.77
2018-05-07T17:49:55.728Z,4.17
2018-05-07T17:52:23.227Z,3.60
2018-05-07T17:54:50.731Z,3.50
2018-05-07T17:57:18.253Z,3.63
2018-05-07T17:59:45.751Z,3.17
2018-05-07T18:02:13.265Z,3.43
2018-05-07T18:04:40.758Z,3.40
2018-05-07T18:07:09.055Z,2.97
2018-05-07T18:09:36.554Z,3.00
2018-05-07T18:12:04.074Z,3.20
2018-05-07T18:14:31.575Z,3.03
2018-05-07T18:16:59.068Z,3.53
2018-05-07T18:19:27.378Z,3.70
2018-05-07T18:21:54.906Z,3.70
2018-05-07T18:24:23.184Z,3.67
2018-05-07T18:26:51.453Z,3.17
2018-05-07T18:29:19.739Z,3.67
2018-05-07T18:31:48.022Z,3.30
2018-05-07T18:34:16.309Z,3.10
2018-05-07T18:36:43.794Z,4.00
2018-05-07T18:39:11.295Z,3.70
2018-05-07T18:41:38.848Z,3.43
2018-05-07T18:44:06.343Z,4.30
2018-05-07T18:46:33.845Z,3.50
2018-05-07T18:49:01.348Z,3.60
2018-05-07T18:51:29.644Z,3.30
2018-05-07T18:53:57.167Z,3.43
2018-05-07T18:56:24.671Z,3.40
2018-05-07T18:58:52.190Z,3.63
2018-05-07T19:01:19.686Z,3.53
2018-05-07T19:03:47.206Z,3.30
2018-05-07T19:06:14.695Z,3.43
2018-05-07T19:08:42.209Z,3.40
2018-05-07T19:11:09.721Z,3.23
2018-05-07T19:13:37.226Z,3.33
2018-05-07T19:16:04.723Z,3.40
2018-05-07T19:18:32.996Z,3.90
2018-05-07T19:21:01.291Z,3.13
2018-05-07T19:23:28.788Z,3.50
2018-05-07T19:25:56.343Z,3.93
2018-05-07T19:28:23.900Z,2.90
2018-05-07T19:30:51.394Z,3.30
2018-05-07T19:33:18.885Z,3.30
2018-05-07T19:35:46.399Z,3.53
2018-05-07T19:38:13.893Z,2.80
2018-05-07T19:40:42.162Z,3.30
2018-05-07T19:43:10.454Z,3.30
2018-05-07T19:45:37.943Z,3.77
2018-05-07T19:48:05.477Z,3.17
2018-05-07T19:50:32.995Z,3.33
2018-05-07T19:53:00.520Z,3.30
2018-05-07T19:55:28.023Z,3.13
2018-05-07T19:57:55.534Z,3.87
2018-05-07T20:00:23.064Z,3.43
2018-05-07T20:02:51.350Z,3.17
2018-05-07T20:05:18.899Z,3.67
2018-05-07T20:07:47.171Z,3.47
2018-05-07T20:10:15.460Z,3.67
2018-05-07T20:12:42.979Z,3.97
2018-05-07T20:15:10.526Z,3.47
2018-05-07T20:17:38.072Z,3.07
2018-05-07T20:20:05.626Z,2.97
2018-05-07T20:22:33.337Z,3.20
2018-05-07T20:25:00.839Z,2.93
2018-05-07T20:27:28.367Z,2.90
2018-05-07T20:29:56.632Z,3.10
2018-05-07T20:32:24.156Z,3.67
2018-05-07T20:34:51.655Z,3.20
2018-05-07T20:37:19.179Z,3.50
2018-05-07T20:39:46.689Z,3.57
2018-05-07T20:42:14.975Z,3.77
2018-05-07T20:44:43.232Z,3.43
2018-05-07T20:47:10.778Z,3.40
2018-05-07T20:49:38.268Z,3.20
2018-05-07T20:52:06.524Z,3.17
2018-05-07T20:54:34.059Z,3.30
2018-05-07T20:57:01.555Z,3.37
2018-05-07T20:59:29.311Z,3.70
2018-05-07T21:01:56.821Z,3.43
2018-05-07T21:04:25.099Z,3.17
2018-05-07T21:06:52.594Z,2.70
2018-05-07T21:09:20.346Z,2.70
2018-05-07T21:11:47.863Z,3.97
2018-05-07T21:14:15.361Z,4.07
2018-05-07T21:16:42.871Z,3.80
2018-05-07T21:19:10.391Z,3.83
2018-05-07T21:21:37.902Z,3.23
2018-05-07T21:24:05.407Z,3.73
2018-05-07T21:26:32.902Z,3.30
2018-05-07T21:29:01.191Z,2.90
2018-05-07T21:31:28.686Z,3.00
2018-05-07T21:33:56.207Z,3.30
2018-05-07T21:36:24.470Z,3.20
2018-05-07T21:38:52.757Z,3.00
2018-05-07T21:41:20.260Z,2.60
2018-05-07T21:43:47.772Z,3.07
2018-05-07T21:46:16.032Z,2.80
2018-05-07T21:48:43.530Z,3.10
2018-05-07T21:51:11.069Z,3.90
2018-05-07T21:53:39.328Z,2.80
2018-05-07T21:56:06.927Z,3.13
2018-05-07T21:58:34.362Z,3.13
2018-05-07T22:01:02.634Z,3.20
2018-05-07T22:03:30.890Z,3.43
2018-05-07T22:05:58.401Z,3.53
2018-05-07T22:08:25.898Z,3.47
2018-05-07T22:10:53.631Z,2.60
2018-05-07T22:13:21.125Z,2.90
2018-05-07T22:15:48.640Z,3.13
2018-05-07T22:18:16.178Z,3.10
2018-05-07T22:20:44.490Z,3.20
2018-05-07T22:23:12.006Z,2.90
2018-05-07T22:25:40.273Z,3.50
2018-05-07T22:28:07.799Z,3.93
2018-05-07T22:30:35.314Z,3.20
2018-05-07T22:33:03.563Z,3.30
2018-05-07T22:35:31.078Z,3.83
2018-05-07T22:37:58.590Z,3.10
2018-05-07T22:40:26.110Z,3.80
2018-05-07T22:42:53.882Z,2.87
2018-05-07T22:45:21.395Z,3.50
2018-05-07T22:47:49.659Z,3.10
2018-05-07T22:50:17.172Z,3.00
2018-05-07T22:52:44.666Z,3.20
2018-05-07T22:55:19.967Z,3.47
2018-05-07T22:57:47.458Z,3.67
2018-05-07T23:00:14.963Z,3.57
2018-05-07T23:02:42.489Z,3.93
2018-05-07T23:05:09.986Z,3.20
2018-05-07T23:07:37.517Z,3.40
2018-05-07T23:10:05.781Z,3.83
2018-05-07T23:12:33.302Z,3.60
2018-05-07T23:15:00.794Z,3.80
2018-05-07T23:17:28.326Z,4.10
2018-05-07T23:19:55.867Z,4.10
2018-05-07T23:22:23.365Z,3.73
2018-05-07T23:24:50.883Z,3.70
2018-05-07T23:27:18.383Z,3.57
2018-05-07T23:29:45.915Z,4.60
2018-05-07T23:32:13.405Z,4.20
2018-05-07T23:34:40.910Z,3.97
2018-05-07T23:37:08.418Z,3.90
2018-05-07T23:39:35.947Z,4.10
2018-05-07T23:42:03.434Z,4.30
2018-05-07T23:44:30.943Z,3.93
2018-05-07T23:46:59.217Z,4.40
2018-05-07T23:49:27.506Z,4.30
2018-05-07T23:51:55.000Z,4.30
2018-05-07T23:54:22.491Z,3.97
2018-05-07T23:56:50.015Z,3.90
2018-05-07T23:59:17.517Z,4.13
